sensor_id;sensor_type;location;lat;lon;timestamp;pressure;altitude;pressure_sealevel;temperature;humidity
10652;BME280;5374;42.742;23.266;2023-08-06T00:01:43;94287.50;;;21.00;100.00
10652;BME280;5374;42.742;23.266;2023-08-06T00:04:30;94266.25;;;20.98;100.00
10652;BME280;5374;42.742;23.266;2023-08-06T00:07:18;94290.91;;;20.85;100.00
10652;BME280;5374;42.742;23.266;2023-08-06T00:10:06;94317.34;;;20.79;100.00
10652;BME280;5374;42.742;23.266;2023-08-06T00:12:53;94334.44;;;20.83;100.00
10652;BME280;5374;42.742;23.266;2023-08-06T00:15:41;94333.47;;;20.75;100.00
10652;BME280;5374;42.742;23.266;2023-08-06T00:18:28;94328.19;;;20.67;100.00
10652;BME280;5374;42.742;23.266;2023-08-06T00:21:15;94326.38;;;20.71;100.00
10652;BME280;5374;42.742;23.266;2023-08-06T00:24:04;94280.44;;;20.55;100.00
10652;BME280;5374;42.742;23.266;2023-08-06T00:26:51;94299.06;;;20.60;100.00
10652;BME280;5374;42.742;23.266;2023-08-06T00:29:38;94318.41;;;20.62;100.00
10652;BME280;5374;42.742;23.266;2023-08-06T00:32:25;94320.19;;;20.70;100.00
10652;BME280;5374;42.742;23.266;2023-08-06T00:35:12;94261.47;;;20.52;100.00
10652;BME280;5374;42.742;23.266;2023-08-06T00:38:00;94289.72;;;20.70;100.00
10652;BME280;5374;42.742;23.266;2023-08-06T00:40:48;94270.06;;;20.69;100.00
10652;BME280;5374;42.742;23.266;2023-08-06T00:43:35;94262.53;;;20.63;100.00
10652;BME280;5374;42.742;23.266;2023-08-06T00:46:23;94287.94;;;20.74;100.00
10652;BME280;5374;42.742;23.266;2023-08-06T00:49:10;94281.75;;;20.73;100.00
10652;BME280;5374;42.742;23.266;2023-08-06T00:51:58;94295.00;;;20.78;100.00
10652;BME280;5374;42.742;23.266;2023-08-06T00:54:46;94280.47;;;20.83;100.00
10652;BME280;5374;42.742;23.266;2023-08-06T00:57:34;94271.47;;;20.79;100.00
10652;BME280;5374;42.742;23.266;2023-08-06T01:00:22;94274.97;;;20.79;100.00
10652;BME280;5374;42.742;23.266;2023-08-06T01:03:10;94268.44;;;20.80;100.00
10652;BME280;5374;42.742;23.266;2023-08-06T01:05:57;94255.72;;;20.81;100.00
10652;BME280;5374;42.742;23.266;2023-08-06T01:09:01;94254.44;;;20.75;100.00
10652;BME280;5374;42.742;23.266;2023-08-06T01:11:59;94242.59;;;20.79;100.00
10652;BME280;5374;42.742;23.266;2023-08-06T01:15:07;94235.09;;;20.73;100.00
10652;BME280;5374;42.742;23.266;2023-08-06T01:17:58;94239.16;;;20.67;100.00
10652;BME280;5374;42.742;23.266;2023-08-06T01:20:47;94240.84;;;20.71;100.00
10652;BME280;5374;42.742;23.266;2023-08-06T01:23:35;94243.97;;;20.73;100.00
10652;BME280;5374;42.742;23.266;2023-08-06T01:26:27;94245.53;;;20.74;100.00
10652;BME280;5374;42.742;23.266;2023-08-06T01:29:22;94251.03;;;20.78;100.00
10652;BME280;5374;42.742;23.266;2023-08-06T01:32:11;94244.16;;;20.80;100.00
10652;BME280;5374;42.742;23.266;2023-08-06T01:35:00;94228.41;;;20.82;100.00
10652;BME280;5374;42.742;23.266;2023-08-06T01:37:49;94226.84;;;20.81;100.00
10652;BME280;5374;42.742;23.266;2023-08-06T01:40:37;94223.69;;;20.79;100.00
10652;BME280;5374;42.742;23.266;2023-08-06T01:43:24;94206.09;;;20.70;100.00
10652;BME280;5374;42.742;23.266;2023-08-06T01:46:11;94225.53;;;20.75;100.00
10652;BME280;5374;42.742;23.266;2023-08-06T01:48:58;94222.16;;;20.78;100.00
10652;BME280;5374;42.742;23.266;2023-08-06T01:51:45;94232.56;;;20.80;100.00
10652;BME280;5374;42.742;23.266;2023-08-06T01:54:34;94222.66;;;20.84;100.00
10652;BME280;5374;42.742;23.266;2023-08-06T01:57:21;94237.28;;;20.83;100.00
10652;BME280;5374;42.742;23.266;2023-08-06T02:00:09;94221.88;;;20.83;100.00
10652;BME280;5374;42.742;23.266;2023-08-06T02:02:56;94205.34;;;20.85;100.00
10652;BME280;5374;42.742;23.266;2023-08-06T02:05:43;94207.38;;;20.88;100.00
10652;BME280;5374;42.742;23.266;2023-08-06T02:08:31;94198.81;;;20.86;100.00
10652;BME280;5374;42.742;23.266;2023-08-06T02:11:19;94206.69;;;20.91;100.00
10652;BME280;5374;42.742;23.266;2023-08-06T02:14:07;94206.00;;;20.94;100.00
10652;BME280;5374;42.742;23.266;2023-08-06T02:16:54;94196.31;;;20.93;100.00
10652;BME280;5374;42.742;23.266;2023-08-06T02:19:41;94200.50;;;20.91;100.00
10652;BME280;5374;42.742;23.266;2023-08-06T02:22:28;94205.09;;;20.90;100.00
10652;BME280;5374;42.742;23.266;2023-08-06T02:25:16;94217.56;;;20.95;100.00
10652;BME280;5374;42.742;23.266;2023-08-06T02:28:04;94231.19;;;20.98;100.00
10652;BME280;5374;42.742;23.266;2023-08-06T02:30:52;94233.31;;;20.93;100.00
10652;BME280;5374;42.742;23.266;2023-08-06T02:33:39;94228.28;;;20.91;100.00
10652;BME280;5374;42.742;23.266;2023-08-06T02:36:26;94204.13;;;20.82;100.00
10652;BME280;5374;42.742;23.266;2023-08-06T02:39:15;94192.94;;;20.68;100.00
10652;BME280;5374;42.742;23.266;2023-08-06T02:42:06;94234.69;;;20.59;100.00
10652;BME280;5374;42.742;23.266;2023-08-06T02:44:54;94258.38;;;20.65;100.00
10652;BME280;5374;42.742;23.266;2023-08-06T02:47:42;94275.78;;;20.68;100.00
10652;BME280;5374;42.742;23.266;2023-08-06T02:50:29;94254.78;;;20.61;100.00
10652;BME280;5374;42.742;23.266;2023-08-06T02:53:17;94235.72;;;20.54;100.00
10652;BME280;5374;42.742;23.266;2023-08-06T02:56:04;94221.97;;;20.59;100.00
10652;BME280;5374;42.742;23.266;2023-08-06T02:58:51;94233.41;;;20.68;100.00
10652;BME280;5374;42.742;23.266;2023-08-06T03:01:40;94187.34;;;20.61;100.00
10652;BME280;5374;42.742;23.266;2023-08-06T03:04:27;94188.13;;;20.62;100.00
10652;BME280;5374;42.742;23.266;2023-08-06T03:07:14;94218.47;;;20.71;100.00
10652;BME280;5374;42.742;23.266;2023-08-06T03:10:01;94200.25;;;20.68;100.00
10652;BME280;5374;42.742;23.266;2023-08-06T03:12:49;94154.31;;;20.64;100.00
10652;BME280;5374;42.742;23.266;2023-08-06T03:15:36;94133.25;;;20.54;100.00
10652;BME280;5374;42.742;23.266;2023-08-06T03:18:25;94152.50;;;20.28;100.00
10652;BME280;5374;42.742;23.266;2023-08-06T03:21:12;94203.38;;;20.42;100.00
10652;BME280;5374;42.742;23.266;2023-08-06T03:24:00;94183.03;;;20.44;100.00
10652;BME280;5374;42.742;23.266;2023-08-06T03:26:47;94159.00;;;20.39;100.00
10652;BME280;5374;42.742;23.266;2023-08-06T03:29:34;94181.22;;;20.48;100.00
10652;BME280;5374;42.742;23.266;2023-08-06T03:32:21;94173.94;;;20.49;100.00
10652;BME280;5374;42.742;23.266;2023-08-06T03:35:10;94158.97;;;20.52;100.00
10652;BME280;5374;42.742;23.266;2023-08-06T03:37:57;94203.63;;;20.65;100.00
10652;BME280;5374;42.742;23.266;2023-08-06T03:40:45;94229.16;;;20.67;100.00
10652;BME280;5374;42.742;23.266;2023-08-06T03:43:33;94237.69;;;20.69;100.00
10652;BME280;5374;42.742;23.266;2023-08-06T03:46:20;94225.00;;;20.58;100.00
10652;BME280;5374;42.742;23.266;2023-08-06T03:49:07;94235.56;;;20.63;100.00
10652;BME280;5374;42.742;23.266;2023-08-06T03:51:55;94239.16;;;20.67;100.00
10652;BME280;5374;42.742;23.266;2023-08-06T03:54:43;94240.63;;;20.64;100.00
10652;BME280;5374;42.742;23.266;2023-08-06T03:57:30;94231.31;;;20.62;100.00
10652;BME280;5374;42.742;23.266;2023-08-06T04:00:17;94241.06;;;20.66;100.00
10652;BME280;5374;42.742;23.266;2023-08-06T04:03:04;94243.88;;;20.70;100.00
10652;BME280;5374;42.742;23.266;2023-08-06T04:05:51;94249.03;;;20.75;100.00
10652;BME280;5374;42.742;23.266;2023-08-06T04:08:40;94257.22;;;20.78;100.00
10652;BME280;5374;42.742;23.266;2023-08-06T04:11:42;94240.34;;;20.81;100.00
10652;BME280;5374;42.742;23.266;2023-08-06T04:14:29;94251.09;;;20.94;100.00
10652;BME280;5374;42.742;23.266;2023-08-06T04:17:16;94250.06;;;20.98;100.00
10652;BME280;5374;42.742;23.266;2023-08-06T04:20:06;94259.28;;;20.97;100.00
10652;BME280;5374;42.742;23.266;2023-08-06T04:22:54;94254.34;;;20.99;100.00
10652;BME280;5374;42.742;23.266;2023-08-06T04:25:41;94250.25;;;21.05;100.00
10652;BME280;5374;42.742;23.266;2023-08-06T04:28:30;94237.19;;;21.07;100.00
10652;BME280;5374;42.742;23.266;2023-08-06T04:31:17;94229.50;;;21.22;100.00
10652;BME280;5374;42.742;23.266;2023-08-06T04:34:04;94222.06;;;21.19;100.00
10652;BME280;5374;42.742;23.266;2023-08-06T04:36:52;94219.16;;;21.24;100.00
10652;BME280;5374;42.742;23.266;2023-08-06T04:39:39;94225.16;;;21.33;100.00
10652;BME280;5374;42.742;23.266;2023-08-06T04:42:26;94214.69;;;21.31;100.00
10652;BME280;5374;42.742;23.266;2023-08-06T04:45:15;94214.78;;;21.35;100.00
10652;BME280;5374;42.742;23.266;2023-08-06T04:48:02;94201.13;;;21.43;100.00
10652;BME280;5374;42.742;23.266;2023-08-06T04:50:50;94189.09;;;21.57;100.00
10652;BME280;5374;42.742;23.266;2023-08-06T04:53:37;94176.09;;;21.78;100.00
10652;BME280;5374;42.742;23.266;2023-08-06T04:56:25;94170.72;;;21.97;100.00
10652;BME280;5374;42.742;23.266;2023-08-06T04:59:12;94181.16;;;22.14;100.00
10652;BME280;5374;42.742;23.266;2023-08-06T05:02:01;94173.50;;;22.16;100.00
10652;BME280;5374;42.742;23.266;2023-08-06T05:04:48;94173.47;;;22.32;100.00
10652;BME280;5374;42.742;23.266;2023-08-06T05:07:36;94159.94;;;22.32;100.00
10652;BME280;5374;42.742;23.266;2023-08-06T05:10:24;94164.06;;;22.84;100.00
10652;BME280;5374;42.742;23.266;2023-08-06T05:13:12;94177.84;;;23.17;100.00
10652;BME280;5374;42.742;23.266;2023-08-06T05:16:00;94172.72;;;23.12;100.00
10652;BME280;5374;42.742;23.266;2023-08-06T05:18:48;94175.28;;;23.05;100.00
10652;BME280;5374;42.742;23.266;2023-08-06T05:21:35;94176.28;;;23.16;100.00
10652;BME280;5374;42.742;23.266;2023-08-06T05:24:22;94185.97;;;23.40;100.00
10652;BME280;5374;42.742;23.266;2023-08-06T05:27:10;94191.06;;;23.65;100.00
10652;BME280;5374;42.742;23.266;2023-08-06T05:29:57;94178.72;;;23.67;100.00
10652;BME280;5374;42.742;23.266;2023-08-06T05:32:44;94179.13;;;23.69;100.00
10652;BME280;5374;42.742;23.266;2023-08-06T05:35:32;94173.59;;;27.91;100.00
10652;BME280;5374;42.742;23.266;2023-08-06T05:38:20;94176.94;;;31.76;86.85
10652;BME280;5374;42.742;23.266;2023-08-06T05:41:07;94185.16;;;34.33;54.69
10652;BME280;5374;42.742;23.266;2023-08-06T05:43:54;94185.78;;;36.76;42.12
10652;BME280;5374;42.742;23.266;2023-08-06T05:46:41;94177.19;;;38.11;39.09
10652;BME280;5374;42.742;23.266;2023-08-06T05:49:28;94189.81;;;37.06;39.65
10652;BME280;5374;42.742;23.266;2023-08-06T05:52:17;94202.28;;;36.33;40.75
10652;BME280;5374;42.742;23.266;2023-08-06T05:55:05;94207.25;;;36.25;41.38
10652;BME280;5374;42.742;23.266;2023-08-06T05:57:52;94209.38;;;35.83;41.88
10652;BME280;5374;42.742;23.266;2023-08-06T06:00:39;94216.63;;;35.64;41.78
10652;BME280;5374;42.742;23.266;2023-08-06T06:03:26;94215.09;;;35.63;41.79
10652;BME280;5374;42.742;23.266;2023-08-06T06:06:14;94196.16;;;35.36;41.89
10652;BME280;5374;42.742;23.266;2023-08-06T06:09:03;94223.38;;;34.47;43.87
10652;BME280;5374;42.742;23.266;2023-08-06T06:11:50;94225.09;;;33.92;44.06
10652;BME280;5374;42.742;23.266;2023-08-06T06:14:37;94240.06;;;33.91;44.69
10652;BME280;5374;42.742;23.266;2023-08-06T06:17:24;94236.78;;;33.80;44.68
10652;BME280;5374;42.742;23.266;2023-08-06T06:20:11;94228.63;;;33.57;45.69
10652;BME280;5374;42.742;23.266;2023-08-06T06:22:58;94241.91;;;33.22;45.15
10652;BME280;5374;42.742;23.266;2023-08-06T06:25:48;94263.78;;;32.90;46.31
10652;BME280;5374;42.742;23.266;2023-08-06T06:28:37;94259.88;;;32.64;46.47
10652;BME280;5374;42.742;23.266;2023-08-06T06:31:24;94254.25;;;32.51;47.24
10652;BME280;5374;42.742;23.266;2023-08-06T06:34:11;94259.84;;;32.44;45.92
10652;BME280;5374;42.742;23.266;2023-08-06T06:36:58;94258.81;;;32.58;45.68
10652;BME280;5374;42.742;23.266;2023-08-06T06:39:45;94267.38;;;31.86;46.05
10652;BME280;5374;42.742;23.266;2023-08-06T06:42:34;94277.19;;;31.26;46.91
10652;BME280;5374;42.742;23.266;2023-08-06T06:45:21;94279.81;;;31.00;48.57
10652;BME280;5374;42.742;23.266;2023-08-06T06:48:08;94256.13;;;30.38;47.49
10652;BME280;5374;42.742;23.266;2023-08-06T06:50:56;94292.88;;;29.85;49.21
10652;BME280;5374;42.742;23.266;2023-08-06T06:53:43;94280.41;;;29.80;50.83
10652;BME280;5374;42.742;23.266;2023-08-06T06:56:30;94281.72;;;29.58;51.95
10652;BME280;5374;42.742;23.266;2023-08-06T06:59:18;94300.91;;;29.51;51.98
10652;BME280;5374;42.742;23.266;2023-08-06T07:02:05;94297.44;;;29.36;52.22
10652;BME280;5374;42.742;23.266;2023-08-06T07:04:52;94303.72;;;29.22;50.85
10652;BME280;5374;42.742;23.266;2023-08-06T07:07:40;94299.34;;;29.46;51.06
10652;BME280;5374;42.742;23.266;2023-08-06T07:10:27;94305.22;;;29.41;52.08
10652;BME280;5374;42.742;23.266;2023-08-06T07:13:14;94308.50;;;29.88;51.88
10652;BME280;5374;42.742;23.266;2023-08-06T07:16:03;94295.41;;;30.69;50.70
10652;BME280;5374;42.742;23.266;2023-08-06T07:18:51;94297.84;;;31.38;49.23
10652;BME280;5374;42.742;23.266;2023-08-06T07:21:39;94298.50;;;31.80;48.36
10652;BME280;5374;42.742;23.266;2023-08-06T07:24:26;94297.59;;;31.86;46.81
10652;BME280;5374;42.742;23.266;2023-08-06T07:27:13;94292.22;;;32.06;44.62
10652;BME280;5374;42.742;23.266;2023-08-06T07:30:00;94316.88;;;32.10;44.14
10652;BME280;5374;42.742;23.266;2023-08-06T07:32:49;94315.44;;;32.02;45.31
10652;BME280;5374;42.742;23.266;2023-08-06T07:35:37;94311.22;;;32.24;44.57
10652;BME280;5374;42.742;23.266;2023-08-06T07:38:24;94301.31;;;32.53;44.01
10652;BME280;5374;42.742;23.266;2023-08-06T07:41:12;94302.47;;;32.79;43.95
10652;BME280;5374;42.742;23.266;2023-08-06T07:43:59;94305.63;;;32.78;42.80
10652;BME280;5374;42.742;23.266;2023-08-06T07:46:46;94306.94;;;32.70;41.46
10652;BME280;5374;42.742;23.266;2023-08-06T07:49:34;94310.00;;;32.52;41.46
10652;BME280;5374;42.742;23.266;2023-08-06T07:52:21;94315.63;;;31.87;42.21
10652;BME280;5374;42.742;23.266;2023-08-06T07:55:08;94303.38;;;31.35;43.72
10652;BME280;5374;42.742;23.266;2023-08-06T07:57:56;94296.97;;;31.75;43.23
10652;BME280;5374;42.742;23.266;2023-08-06T08:00:43;94301.84;;;32.18;44.12
10652;BME280;5374;42.742;23.266;2023-08-06T08:03:31;94299.56;;;32.13;42.27
10652;BME280;5374;42.742;23.266;2023-08-06T08:06:19;94291.66;;;31.91;43.11
10652;BME280;5374;42.742;23.266;2023-08-06T08:09:06;94288.16;;;31.87;44.84
10652;BME280;5374;42.742;23.266;2023-08-06T08:11:53;94280.94;;;32.01;43.42
10652;BME280;5374;42.742;23.266;2023-08-06T08:14:40;94283.75;;;32.24;43.83
10652;BME280;5374;42.742;23.266;2023-08-06T08:17:30;94298.66;;;32.23;43.53
10652;BME280;5374;42.742;23.266;2023-08-06T08:20:18;94289.63;;;31.95;43.58
10652;BME280;5374;42.742;23.266;2023-08-06T08:23:06;94285.97;;;32.06;43.55
10652;BME280;5374;42.742;23.266;2023-08-06T08:25:53;94285.22;;;32.02;42.52
10652;BME280;5374;42.742;23.266;2023-08-06T08:28:41;94294.38;;;31.91;42.97
10652;BME280;5374;42.742;23.266;2023-08-06T08:31:28;94292.00;;;31.93;42.61
10652;BME280;5374;42.742;23.266;2023-08-06T08:34:15;94300.88;;;32.05;42.58
10652;BME280;5374;42.742;23.266;2023-08-06T08:37:03;94287.56;;;32.30;42.46
10652;BME280;5374;42.742;23.266;2023-08-06T08:39:53;94283.13;;;32.36;42.96
10652;BME280;5374;42.742;23.266;2023-08-06T08:42:40;94282.91;;;32.27;43.16
10652;BME280;5374;42.742;23.266;2023-08-06T08:45:29;94284.28;;;32.12;42.73
10652;BME280;5374;42.742;23.266;2023-08-06T08:48:17;94281.34;;;32.26;43.26
10652;BME280;5374;42.742;23.266;2023-08-06T08:51:06;94287.91;;;32.32;42.44
10652;BME280;5374;42.742;23.266;2023-08-06T08:53:55;94278.31;;;32.44;42.00
10652;BME280;5374;42.742;23.266;2023-08-06T08:56:44;94276.69;;;32.23;41.95
10652;BME280;5374;42.742;23.266;2023-08-06T08:59:33;94275.25;;;32.11;43.05
10652;BME280;5374;42.742;23.266;2023-08-06T09:02:21;94262.47;;;32.28;43.52
10652;BME280;5374;42.742;23.266;2023-08-06T09:05:10;94273.56;;;32.21;42.78
10652;BME280;5374;42.742;23.266;2023-08-06T09:08:01;94267.31;;;32.17;44.12
10652;BME280;5374;42.742;23.266;2023-08-06T09:10:49;94263.06;;;32.12;41.34
10652;BME280;5374;42.742;23.266;2023-08-06T09:13:39;94259.88;;;31.90;42.42
10652;BME280;5374;42.742;23.266;2023-08-06T09:16:26;94259.63;;;31.81;42.93
10652;BME280;5374;42.742;23.266;2023-08-06T09:19:14;94258.25;;;31.66;43.20
10652;BME280;5374;42.742;23.266;2023-08-06T09:22:03;94251.91;;;31.42;41.92
10652;BME280;5374;42.742;23.266;2023-08-06T09:24:56;94252.59;;;31.50;42.54
10652;BME280;5374;42.742;23.266;2023-08-06T09:27:46;94247.41;;;31.25;41.84
10652;BME280;5374;42.742;23.266;2023-08-06T09:30:36;94248.03;;;31.40;43.05
10652;BME280;5374;42.742;23.266;2023-08-06T09:33:24;94246.81;;;31.41;42.54
10652;BME280;5374;42.742;23.266;2023-08-06T09:36:11;94251.72;;;31.26;42.94
10652;BME280;5374;42.742;23.266;2023-08-06T09:38:59;94250.59;;;31.20;41.53
10652;BME280;5374;42.742;23.266;2023-08-06T09:41:47;94236.31;;;31.36;43.19
10652;BME280;5374;42.742;23.266;2023-08-06T09:44:35;94220.63;;;31.36;42.68
10652;BME280;5374;42.742;23.266;2023-08-06T09:47:24;94233.75;;;31.52;42.25
10652;BME280;5374;42.742;23.266;2023-08-06T09:50:15;94228.94;;;31.59;41.90
10652;BME280;5374;42.742;23.266;2023-08-06T09:53:03;94247.25;;;31.39;41.10
10652;BME280;5374;42.742;23.266;2023-08-06T09:55:50;94237.47;;;31.04;42.83
10652;BME280;5374;42.742;23.266;2023-08-06T09:58:38;94235.78;;;30.80;41.58
10652;BME280;5374;42.742;23.266;2023-08-06T10:01:26;94241.59;;;30.85;41.39
10652;BME280;5374;42.742;23.266;2023-08-06T10:04:15;94239.59;;;31.23;41.68
10652;BME280;5374;42.742;23.266;2023-08-06T10:07:04;94237.94;;;31.60;41.92
10652;BME280;5374;42.742;23.266;2023-08-06T10:09:51;94242.84;;;32.03;42.54
10652;BME280;5374;42.742;23.266;2023-08-06T10:12:40;94243.25;;;32.01;40.62
10652;BME280;5374;42.742;23.266;2023-08-06T10:15:31;94244.53;;;31.66;40.81
10652;BME280;5374;42.742;23.266;2023-08-06T10:18:20;94249.38;;;31.55;42.31
10652;BME280;5374;42.742;23.266;2023-08-06T10:21:09;94260.28;;;31.62;41.12
10652;BME280;5374;42.742;23.266;2023-08-06T10:23:57;94252.75;;;31.39;40.89
10652;BME280;5374;42.742;23.266;2023-08-06T10:26:44;94259.31;;;31.15;41.13
10652;BME280;5374;42.742;23.266;2023-08-06T10:29:40;94254.69;;;31.05;41.88
10652;BME280;5374;42.742;23.266;2023-08-06T10:32:48;94255.59;;;30.94;42.05
10652;BME280;5374;42.742;23.266;2023-08-06T10:35:37;94254.53;;;30.85;42.14
10652;BME280;5374;42.742;23.266;2023-08-06T10:38:26;94258.41;;;30.46;42.09
10652;BME280;5374;42.742;23.266;2023-08-06T10:41:23;94261.25;;;30.32;42.01
10652;BME280;5374;42.742;23.266;2023-08-06T10:44:11;94274.81;;;30.50;42.37
10652;BME280;5374;42.742;23.266;2023-08-06T10:47:26;94257.63;;;30.46;42.26
10652;BME280;5374;42.742;23.266;2023-08-06T10:50:14;94277.38;;;30.71;42.48
10652;BME280;5374;42.742;23.266;2023-08-06T10:53:06;94270.91;;;30.92;42.50
10652;BME280;5374;42.742;23.266;2023-08-06T10:55:55;94285.47;;;30.85;41.64
10652;BME280;5374;42.742;23.266;2023-08-06T10:58:42;94279.69;;;30.28;40.97
10652;BME280;5374;42.742;23.266;2023-08-06T11:01:29;94288.63;;;29.80;42.65
10652;BME280;5374;42.742;23.266;2023-08-06T11:04:17;94302.47;;;29.52;44.65
10652;BME280;5374;42.742;23.266;2023-08-06T11:07:06;94307.63;;;29.18;47.58
10652;BME280;5374;42.742;23.266;2023-08-06T11:10:01;94299.88;;;29.06;50.23
10652;BME280;5374;42.742;23.266;2023-08-06T11:12:50;94295.97;;;29.03;52.26
10652;BME280;5374;42.742;23.266;2023-08-06T11:15:37;94292.50;;;28.81;51.85
10652;BME280;5374;42.742;23.266;2023-08-06T11:18:24;94302.28;;;28.86;52.59
10652;BME280;5374;42.742;23.266;2023-08-06T11:21:11;94292.13;;;28.69;49.88
10652;BME280;5374;42.742;23.266;2023-08-06T11:23:59;94288.22;;;28.66;47.49
10652;BME280;5374;42.742;23.266;2023-08-06T11:26:46;94299.94;;;28.52;48.33
10652;BME280;5374;42.742;23.266;2023-08-06T11:29:38;94297.97;;;28.85;48.61
10652;BME280;5374;42.742;23.266;2023-08-06T11:32:25;94300.72;;;28.85;47.38
10652;BME280;5374;42.742;23.266;2023-08-06T11:35:14;94285.84;;;28.72;45.91
10652;BME280;5374;42.742;23.266;2023-08-06T11:38:01;94291.34;;;28.82;45.51
10652;BME280;5374;42.742;23.266;2023-08-06T11:40:50;94286.91;;;29.24;45.49
10652;BME280;5374;42.742;23.266;2023-08-06T11:43:37;94280.84;;;29.68;44.64
10652;BME280;5374;42.742;23.266;2023-08-06T11:46:26;94261.66;;;29.79;42.20
10652;BME280;5374;42.742;23.266;2023-08-06T11:49:14;94281.09;;;29.99;42.45
10652;BME280;5374;42.742;23.266;2023-08-06T11:52:08;94273.66;;;30.03;41.43
10652;BME280;5374;42.742;23.266;2023-08-06T11:55:02;94261.09;;;30.05;41.13
10652;BME280;5374;42.742;23.266;2023-08-06T11:57:52;94269.34;;;30.02;40.88
10652;BME280;5374;42.742;23.266;2023-08-06T12:00:39;94257.88;;;29.55;41.42
10652;BME280;5374;42.742;23.266;2023-08-06T12:03:29;94272.78;;;29.40;42.51
10652;BME280;5374;42.742;23.266;2023-08-06T12:06:17;94269.72;;;29.27;42.32
10652;BME280;5374;42.742;23.266;2023-08-06T12:09:04;94264.72;;;29.04;43.11
10652;BME280;5374;42.742;23.266;2023-08-06T12:11:51;94261.22;;;29.00;44.06
10652;BME280;5374;42.742;23.266;2023-08-06T12:14:38;94258.84;;;29.09;44.56
10652;BME280;5374;42.742;23.266;2023-08-06T12:17:26;94248.16;;;29.47;44.11
10652;BME280;5374;42.742;23.266;2023-08-06T12:20:15;94245.66;;;29.74;42.71
10652;BME280;5374;42.742;23.266;2023-08-06T12:23:02;94242.28;;;30.07;41.34
10652;BME280;5374;42.742;23.266;2023-08-06T12:25:49;94250.81;;;30.20;42.18
10652;BME280;5374;42.742;23.266;2023-08-06T12:28:36;94253.78;;;30.36;41.55
10652;BME280;5374;42.742;23.266;2023-08-06T12:31:24;94247.78;;;30.52;41.51
10652;BME280;5374;42.742;23.266;2023-08-06T12:34:11;94245.91;;;30.45;40.24
10652;BME280;5374;42.742;23.266;2023-08-06T12:36:59;94249.63;;;30.66;41.09
10652;BME280;5374;42.742;23.266;2023-08-06T12:39:46;94262.16;;;30.67;40.37
10652;BME280;5374;42.742;23.266;2023-08-06T12:42:33;94235.50;;;30.71;40.09
10652;BME280;5374;42.742;23.266;2023-08-06T12:45:21;94256.00;;;30.55;40.82
10652;BME280;5374;42.742;23.266;2023-08-06T12:48:08;94253.66;;;30.50;40.96
10652;BME280;5374;42.742;23.266;2023-08-06T12:50:55;94252.34;;;30.24;41.06
10652;BME280;5374;42.742;23.266;2023-08-06T12:53:43;94243.44;;;30.10;40.54
10652;BME280;5374;42.742;23.266;2023-08-06T12:56:30;94238.47;;;29.94;40.66
10652;BME280;5374;42.742;23.266;2023-08-06T12:59:18;94245.63;;;29.77;41.08
10652;BME280;5374;42.742;23.266;2023-08-06T13:02:05;94258.59;;;29.66;41.22
10652;BME280;5374;42.742;23.266;2023-08-06T13:04:52;94249.59;;;29.66;41.99
10652;BME280;5374;42.742;23.266;2023-08-06T13:07:39;94255.84;;;29.66;41.50
10652;BME280;5374;42.742;23.266;2023-08-06T13:10:28;94249.16;;;29.74;41.11
10652;BME280;5374;42.742;23.266;2023-08-06T13:13:16;94246.56;;;29.53;41.82
10652;BME280;5374;42.742;23.266;2023-08-06T13:16:04;94269.25;;;29.50;41.67
10652;BME280;5374;42.742;23.266;2023-08-06T13:18:51;94263.41;;;29.41;42.88
10652;BME280;5374;42.742;23.266;2023-08-06T13:22:00;94266.97;;;29.31;42.71
10652;BME280;5374;42.742;23.266;2023-08-06T13:24:49;94258.47;;;29.07;42.68
10652;BME280;5374;42.742;23.266;2023-08-06T13:27:37;94267.78;;;29.17;43.57
10652;BME280;5374;42.742;23.266;2023-08-06T13:30:25;94256.53;;;28.93;43.52
10652;BME280;5374;42.742;23.266;2023-08-06T13:33:12;94275.69;;;28.97;44.01
10652;BME280;5374;42.742;23.266;2023-08-06T13:35:59;94265.53;;;28.98;43.70
10652;BME280;5374;42.742;23.266;2023-08-06T13:38:46;94253.09;;;28.82;43.04
10652;BME280;5374;42.742;23.266;2023-08-06T13:41:33;94262.78;;;28.94;43.96
10652;BME280;5374;42.742;23.266;2023-08-06T13:44:22;94264.34;;;28.95;43.32
10652;BME280;5374;42.742;23.266;2023-08-06T13:47:09;94262.31;;;29.20;42.53
10652;BME280;5374;42.742;23.266;2023-08-06T13:49:57;94272.38;;;29.52;42.30
10652;BME280;5374;42.742;23.266;2023-08-06T13:52:44;94269.91;;;29.68;42.08
10652;BME280;5374;42.742;23.266;2023-08-06T13:55:31;94261.25;;;29.80;41.43
10652;BME280;5374;42.742;23.266;2023-08-06T13:58:18;94263.53;;;29.85;41.52
10652;BME280;5374;42.742;23.266;2023-08-06T14:01:09;94267.78;;;29.93;41.44
10652;BME280;5374;42.742;23.266;2023-08-06T14:03:56;94260.34;;;29.98;41.42
10652;BME280;5374;42.742;23.266;2023-08-06T14:06:43;94254.09;;;30.01;41.35
10652;BME280;5374;42.742;23.266;2023-08-06T14:09:31;94254.09;;;29.97;41.28
10652;BME280;5374;42.742;23.266;2023-08-06T14:12:20;94258.81;;;29.89;41.26
10652;BME280;5374;42.742;23.266;2023-08-06T14:15:08;94256.84;;;29.93;40.81
10652;BME280;5374;42.742;23.266;2023-08-06T14:17:56;94252.22;;;29.83;41.18
10652;BME280;5374;42.742;23.266;2023-08-06T14:20:44;94247.66;;;29.66;41.40
10652;BME280;5374;42.742;23.266;2023-08-06T14:23:31;94246.59;;;29.39;41.83
10652;BME280;5374;42.742;23.266;2023-08-06T14:26:18;94255.28;;;29.19;42.75
10652;BME280;5374;42.742;23.266;2023-08-06T14:29:05;94249.13;;;28.94;43.31
10652;BME280;5374;42.742;23.266;2023-08-06T14:31:52;94258.94;;;28.81;43.59
10652;BME280;5374;42.742;23.266;2023-08-06T14:34:41;94246.47;;;28.69;44.19
10652;BME280;5374;42.742;23.266;2023-08-06T14:37:28;94256.22;;;28.67;43.78
10652;BME280;5374;42.742;23.266;2023-08-06T14:40:15;94247.63;;;28.65;44.86
10652;BME280;5374;42.742;23.266;2023-08-06T14:43:02;94265.97;;;28.68;44.18
10652;BME280;5374;42.742;23.266;2023-08-06T14:45:50;94258.56;;;28.65;44.54